Time;durP1;ratioP1;P1;durP2;ratioP2;P2;SDS_P1;SDS_P2;PMS_P1;PMS_P2;Temp;Humidity;BMP_temperature;BMP_pressure;BME280_temperature;BME280_humidity;BME280_pressure;Samples;Min_cycle;Max_cycle;Signal;HPM_P1;HPM_P2
2023/05/08 00:01:51;;;;;;;13.75;7.30;;;3.80;69.60;;;;;;5097720;28;20040;-83
2023/05/08 00:04:19;;;;;;;15.00;6.43;;;3.80;69.80;;;;;;5079942;28;20119;-87
2023/05/08 00:06:50;;;;;;;10.98;6.97;;;3.70;69.80;;;;;;5103823;28;20032;-88
2023/05/08 00:09:16;;;;;;;13.90;7.72;;;3.70;70.10;;;;;;5084774;28;20032;-87
2023/05/08 00:11:42;;;;;;;11.48;7.03;;;3.70;70.50;;;;;;5100107;28;20020;-88
2023/05/08 00:14:07;;;;;;;17.65;7.18;;;3.70;70.40;;;;;;5092941;28;20080;-87
2023/05/08 00:16:33;;;;;;;13.07;7.78;;;3.70;70.50;;;;;;5098046;28;20421;-86
2023/05/08 00:18:59;;;;;;;15.68;8.07;;;3.70;70.40;;;;;;5108141;28;20031;-85
2023/05/08 00:21:25;;;;;;;20.83;7.60;;;3.80;70.50;;;;;;5101849;28;20031;-85
2023/05/08 00:23:51;;;;;;;10.00;6.75;;;3.80;70.30;;;;;;5108930;28;20027;-88
2023/05/08 00:26:17;;;;;;;14.95;7.70;;;3.80;70.40;;;;;;5117051;28;20008;-87
2023/05/08 00:28:43;;;;;;;14.65;7.55;;;3.80;70.50;;;;;;5091548;28;20465;-88
2023/05/08 00:31:09;;;;;;;13.00;5.75;;;3.80;70.70;;;;;;5113490;28;20035;-89
2023/05/08 00:33:35;;;;;;;12.63;7.22;;;3.70;70.90;;;;;;5079668;28;20028;-89
2023/05/08 00:36:02;;;;;;;12.90;6.70;;;3.60;71.10;;;;;;5096291;28;20020;-88
2023/05/08 00:38:35;;;;;;;15.18;8.25;;;3.70;71.40;;;;;;5103978;28;20035;-86
2023/05/08 00:41:01;;;;;;;14.05;7.32;;;3.60;71.60;;;;;;5085436;28;20052;-88
2023/05/08 00:43:28;;;;;;;14.45;8.27;;;3.60;71.80;;;;;;5100358;28;20023;-90
2023/05/08 00:45:55;;;;;;;14.68;7.55;;;3.60;71.90;;;;;;5125122;28;20059;-88
2023/05/08 00:48:23;;;;;;;20.40;7.22;;;3.60;72.00;;;;;;5121309;28;20015;-89
2023/05/08 00:50:51;;;;;;;14.65;7.82;;;3.50;72.10;;;;;;5091162;28;20059;-88
2023/05/08 00:53:19;;;;;;;16.13;7.90;;;3.50;72.30;;;;;;5072407;28;20028;-90
2023/05/08 00:55:46;;;;;;;13.90;8.00;;;3.50;72.50;;;;;;5082865;28;20071;-89
2023/05/08 00:58:13;;;;;;;15.90;7.22;;;3.50;72.60;;;;;;5072848;28;20035;-88
2023/05/08 01:00:42;;;;;;;16.27;8.37;;;3.40;72.60;;;;;;5112970;28;20035;-85
2023/05/08 01:03:11;;;;;;;15.20;8.00;;;3.40;72.80;;;;;;5103304;28;20100;-88
2023/05/08 01:05:37;;;;;;;20.02;9.13;;;3.40;73.00;;;;;;5096481;28;20050;-89
2023/05/08 01:08:03;;;;;;;14.50;7.88;;;3.40;73.10;;;;;;5098272;28;20503;-90
2023/05/08 01:11:06;;;;;;;10.98;7.97;;;3.30;73.20;;;;;;5103366;28;20028;-89
2023/05/08 01:13:41;;;;;;;16.70;7.97;;;3.30;73.40;;;;;;5008438;28;20099;-90
2023/05/08 01:16:43;;;;;;;16.98;7.65;;;3.30;73.30;;;;;;5033949;28;20014;-88
2023/05/08 01:19:36;;;;;;;18.67;7.30;;;3.30;73.60;;;;;;5025308;28;20049;-86
2023/05/08 01:22:38;;;;;;;15.35;8.02;;;3.20;73.70;;;;;;5047232;28;20168;-87
2023/05/08 01:25:09;;;;;;;14.25;7.68;;;3.30;74.00;;;;;;5051386;28;20030;-89
2023/05/08 01:28:14;;;;;;;14.07;8.23;;;3.20;74.10;;;;;;5025871;28;20061;-89
2023/05/08 01:31:16;;;;;;;16.30;8.10;;;3.20;74.40;;;;;;5048893;28;20039;-90
2023/05/08 01:34:35;;;;;;;14.60;7.93;;;3.20;74.40;;;;;;5038650;28;20010;-88
2023/05/08 01:37:11;;;;;;;12.98;7.90;;;3.20;74.60;;;;;;4974330;28;20023;-88
2023/05/08 01:39:44;;;;;;;13.13;7.82;;;3.20;74.80;;;;;;4973255;28;20128;-89
2023/05/08 01:42:18;;;;;;;14.23;8.82;;;3.20;74.90;;;;;;4966172;28;20062;-88
2023/05/08 01:44:50;;;;;;;13.98;6.75;;;3.20;75.00;;;;;;4986251;28;20033;-88
2023/05/08 01:47:23;;;;;;;19.17;8.30;;;3.20;74.90;;;;;;4973179;28;20027;-89
2023/05/08 01:49:55;;;;;;;15.30;8.27;;;3.20;74.90;;;;;;4998146;28;20038;-87
2023/05/08 01:52:30;;;;;;;11.43;7.28;;;3.20;74.80;;;;;;5019263;28;20545;-88
2023/05/08 01:55:05;;;;;;;11.82;8.45;;;3.20;74.80;;;;;;5012231;28;20021;-89
2023/05/08 01:57:36;;;;;;;13.30;8.23;;;3.20;74.80;;;;;;5027209;28;20034;-89
2023/05/08 02:00:03;;;;;;;11.88;6.88;;;3.20;74.90;;;;;;5026402;28;20056;-87
2023/05/08 02:02:32;;;;;;;11.85;7.82;;;3.30;74.90;;;;;;5017357;28;20509;-88
2023/05/08 02:05:01;;;;;;;10.00;6.47;;;3.30;74.90;;;;;;5021355;28;20099;-89
2023/05/08 02:07:27;;;;;;;15.88;7.90;;;3.30;74.90;;;;;;5016490;28;20499;-88
2023/05/08 02:09:54;;;;;;;12.10;7.70;;;3.40;75.00;;;;;;5024394;28;20017;-88
2023/05/08 02:12:22;;;;;;;18.35;8.27;;;3.40;75.00;;;;;;5104176;28;20038;-90
2023/05/08 02:14:48;;;;;;;15.55;8.25;;;3.40;75.10;;;;;;5090377;28;20050;-89
2023/05/08 02:17:16;;;;;;;17.17;9.35;;;3.50;75.00;;;;;;5106216;28;20024;-86
2023/05/08 02:19:43;;;;;;;15.93;7.97;;;3.50;74.90;;;;;;5095379;28;20024;-87
2023/05/08 02:22:13;;;;;;;11.70;8.02;;;3.60;74.70;;;;;;5105205;28;20013;-85
2023/05/08 02:24:40;;;;;;;18.00;9.07;;;3.70;74.40;;;;;;5114496;28;20046;-86
2023/05/08 02:27:08;;;;;;;13.37;8.63;;;3.70;74.20;;;;;;5098380;28;20401;-87
2023/05/08 02:29:35;;;;;;;14.10;7.53;;;3.80;74.00;;;;;;5104316;28;20338;-88
2023/05/08 02:32:03;;;;;;;14.85;8.98;;;3.80;74.00;;;;;;5070255;28;20033;-90
2023/05/08 02:34:30;;;;;;;15.60;8.40;;;3.90;73.70;;;;;;5068341;28;21097;-88
2023/05/08 02:36:58;;;;;;;12.73;8.38;;;4.00;73.50;;;;;;5057577;28;20070;-88
2023/05/08 02:39:30;;;;;;;16.77;8.93;;;4.10;73.40;;;;;;5056572;28;20025;-88
2023/05/08 02:41:57;;;;;;;14.15;9.15;;;4.10;73.20;;;;;;5074326;28;20140;-89
2023/05/08 02:44:23;;;;;;;18.92;8.43;;;4.20;73.00;;;;;;5067735;28;20063;-88
2023/05/08 02:47:10;;;;;;;16.85;9.40;;;4.30;73.00;;;;;;5058936;28;20029;-88
2023/05/08 02:49:44;;;;;;;13.73;9.00;;;4.40;73.00;;;;;;5087069;28;20106;-88
2023/05/08 02:52:17;;;;;;;13.93;9.65;;;4.50;72.70;;;;;;5069230;28;20028;-88
2023/05/08 02:54:50;;;;;;;14.70;9.05;;;4.60;72.40;;;;;;5092203;28;20052;-88
2023/05/08 02:57:32;;;;;;;15.15;9.95;;;4.70;72.50;;;;;;5089499;28;20032;-89
2023/05/08 03:00:10;;;;;;;18.77;11.13;;;4.70;72.30;;;;;;5085998;28;20049;-88
2023/05/08 03:02:48;;;;;;;13.77;10.95;;;4.80;71.90;;;;;;5052289;28;20048;-89
2023/05/08 03:05:17;;;;;;;14.63;11.55;;;4.80;71.50;;;;;;5085575;28;20024;-87
2023/05/08 03:07:49;;;;;;;14.93;10.57;;;4.80;71.30;;;;;;5083325;28;20016;-87
2023/05/08 03:10:17;;;;;;;15.93;10.35;;;4.80;71.20;;;;;;5085837;28;20088;-90
2023/05/08 03:12:47;;;;;;;17.88;9.38;;;4.80;71.20;;;;;;5092967;28;20031;-89
2023/05/08 03:15:31;;;;;;;16.70;10.63;;;4.90;71.20;;;;;;5094899;28;20091;-87
2023/05/08 03:18:02;;;;;;;14.55;10.45;;;5.00;71.10;;;;;;5133703;28;20016;-87
2023/05/08 03:20:36;;;;;;;16.05;10.63;;;5.00;70.80;;;;;;5102840;28;20043;-88
2023/05/08 03:23:04;;;;;;;17.52;10.43;;;5.10;70.80;;;;;;5127448;28;20026;-86
2023/05/08 03:25:33;;;;;;;16.67;10.48;;;5.20;70.80;;;;;;5113422;28;20027;-88
2023/05/08 03:28:00;;;;;;;15.43;9.77;;;5.20;70.40;;;;;;5094088;28;20326;-87
2023/05/08 03:30:27;;;;;;;10.95;8.95;;;5.30;70.10;;;;;;5099196;28;20035;-86
2023/05/08 03:32:55;;;;;;;17.40;10.10;;;5.40;69.80;;;;;;5109604;28;20405;-89
2023/05/08 03:35:22;;;;;;;18.50;11.10;;;5.50;69.50;;;;;;5102528;28;20023;-88
2023/05/08 03:37:47;;;;;;;19.65;9.73;;;5.50;69.30;;;;;;5085765;28;20108;-86
2023/05/08 03:40:13;;;;;;;20.00;9.73;;;5.50;69.10;;;;;;5082949;28;20048;-87
2023/05/08 03:42:40;;;;;;;14.38;10.35;;;5.60;68.90;;;;;;5112493;28;20036;-88
2023/05/08 03:45:08;;;;;;;21.13;9.63;;;5.70;68.60;;;;;;5100952;28;20111;-88
2023/05/08 03:47:35;;;;;;;15.63;10.50;;;5.70;68.30;;;;;;5098829;28;20024;-89
2023/05/08 03:50:02;;;;;;;20.08;10.18;;;5.80;68.20;;;;;;5105504;28;20123;-87
2023/05/08 03:52:29;;;;;;;15.15;9.18;;;5.80;67.80;;;;;;5116725;28;20053;-89
2023/05/08 03:54:55;;;;;;;16.38;9.00;;;5.90;67.80;;;;;;5101128;28;20058;-89
2023/05/08 03:57:26;;;;;;;13.90;9.45;;;5.90;67.60;;;;;;5128681;28;20397;-90
2023/05/08 04:00:15;;;;;;;17.45;10.38;;;6.00;67.50;;;;;;5102087;28;20473;-88
2023/05/08 04:02:48;;;;;;;19.20;10.20;;;6.10;67.40;;;;;;5078725;28;20028;-87
2023/05/08 04:05:20;;;;;;;13.88;9.70;;;6.10;67.10;;;;;;5106317;28;20020;-87
2023/05/08 04:07:59;;;;;;;13.63;9.57;;;6.20;67.00;;;;;;5105001;28;20076;-89
2023/05/08 04:10:37;;;;;;;16.20;9.98;;;6.30;66.70;;;;;;5086526;28;20113;-89
2023/05/08 04:13:13;;;;;;;13.55;10.68;;;6.40;66.60;;;;;;5094432;28;20023;-89
2023/05/08 04:15:48;;;;;;;20.70;10.07;;;6.50;66.30;;;;;;5090928;28;20027;-88
2023/05/08 04:18:18;;;;;;;19.20;10.38;;;6.50;66.10;;;;;;5084884;28;20130;-91
2023/05/08 04:20:47;;;;;;;13.85;9.32;;;6.60;65.80;;;;;;5108102;28;20031;-91
2023/05/08 04:23:18;;;;;;;14.80;9.45;;;6.60;66.00;;;;;;5103504;28;20143;-89
2023/05/08 04:25:47;;;;;;;13.40;9.23;;;6.70;65.70;;;;;;5112706;28;20012;-88
2023/05/08 04:28:14;;;;;;;13.15;10.30;;;6.70;65.40;;;;;;5078814;28;20035;-87
2023/05/08 04:30:41;;;;;;;14.68;10.60;;;6.80;65.10;;;;;;5087920;28;20078;-87
2023/05/08 04:33:08;;;;;;;15.07;9.98;;;6.90;65.00;;;;;;5116033;28;20028;-88
2023/05/08 04:35:34;;;;;;;12.35;9.43;;;6.90;64.90;;;;;;5106475;28;20016;-87
2023/05/08 04:38:03;;;;;;;18.10;9.57;;;7.00;64.50;;;;;;5083497;28;20126;-89
2023/05/08 04:40:29;;;;;;;17.23;9.93;;;7.10;64.40;;;;;;5111037;28;20021;-87
2023/05/08 04:42:55;;;;;;;16.30;8.32;;;7.20;64.50;;;;;;5097343;28;20047;-86
2023/05/08 04:45:21;;;;;;;12.93;8.38;;;7.30;64.00;;;;;;5101023;28;20016;-86
2023/05/08 04:47:47;;;;;;;11.88;7.93;;;7.40;64.20;;;;;;5112986;28;20038;-89
2023/05/08 04:50:12;;;;;;;16.90;7.10;;;7.80;64.30;;;;;;5086051;28;20033;-89
2023/05/08 04:52:38;;;;;;;9.40;6.13;;;8.70;62.70;;;;;;5113426;28;20483;-88
2023/05/08 04:55:05;;;;;;;13.77;7.65;;;9.80;60.00;;;;;;5097132;28;20032;-89
2023/05/08 04:57:30;;;;;;;11.55;7.47;;;10.80;56.40;;;;;;5100883;28;20096;-87
2023/05/08 04:59:56;;;;;;;12.23;8.02;;;11.70;54.30;;;;;;5081989;28;20104;-89
2023/05/08 05:02:25;;;;;;;12.25;8.35;;;12.50;51.90;;;;;;5095736;28;20049;-88
2023/05/08 05:04:51;;;;;;;11.23;8.23;;;13.40;49.90;;;;;;5103564;28;20016;-87
2023/05/08 05:07:17;;;;;;;14.57;7.72;;;14.00;48.30;;;;;;5099440;28;20026;-90
2023/05/08 05:09:43;;;;;;;12.55;8.32;;;14.60;47.40;;;;;;5073416;28;20055;-88
2023/05/08 05:12:09;;;;;;;8.90;6.28;;;15.40;46.10;;;;;;5076810;28;20599;-87
2023/05/08 05:14:35;;;;;;;9.43;6.30;;;15.90;44.00;;;;;;5046509;28;20032;-90
2023/05/08 05:17:01;;;;;;;14.02;6.97;;;16.40;43.90;;;;;;5057241;28;20070;-91
2023/05/08 05:19:28;;;;;;;9.35;6.45;;;17.30;43.40;;;;;;5044854;28;20549;-89
2023/05/08 05:21:54;;;;;;;7.30;6.50;;;18.00;40.30;;;;;;5061906;28;20071;-86
2023/05/08 05:24:20;;;;;;;7.68;5.40;;;17.90;40.30;;;;;;5070156;28;20028;-86
2023/05/08 05:26:45;;;;;;;8.68;3.95;;;18.10;39.70;;;;;;5079403;28;20067;-87
2023/05/08 05:29:12;;;;;;;5.60;4.00;;;18.10;38.30;;;;;;5077915;28;20584;-86
2023/05/08 05:31:37;;;;;;;9.50;5.10;;;18.10;38.20;;;;;;5052038;28;20024;-89
2023/05/08 05:34:03;;;;;;;7.60;4.93;;;18.30;37.60;;;;;;5060020;28;20051;-86
2023/05/08 05:36:29;;;;;;;7.88;4.38;;;18.20;37.50;;;;;;5072639;28;20529;-87
2023/05/08 05:38:55;;;;;;;9.25;4.95;;;18.50;37.60;;;;;;5076079;28;20025;-87
2023/05/08 05:41:21;;;;;;;9.45;4.13;;;19.00;37.30;;;;;;5110201;28;20036;-90
2023/05/08 05:43:47;;;;;;;5.30;2.50;;;19.80;35.80;;;;;;5111550;28;20024;-90
2023/05/08 05:46:14;;;;;;;7.68;2.45;;;19.50;35.10;;;;;;5083367;28;20377;-89
2023/05/08 05:48:40;;;;;;;7.78;2.83;;;19.40;35.30;;;;;;5100389;28;20016;-87
2023/05/08 05:51:06;;;;;;;2.92;2.25;;;20.00;35.20;;;;;;5102625;28;20061;-90
2023/05/08 05:53:32;;;;;;;4.32;2.15;;;20.90;33.90;;;;;;5086069;28;20020;-89
2023/05/08 05:55:58;;;;;;;3.30;1.80;;;21.80;33.00;;;;;;5076428;28;20023;-93
2023/05/08 05:58:24;;;;;;;6.35;2.10;;;22.60;31.80;;;;;;5099853;28;20047;-91
2023/05/08 06:00:50;;;;;;;4.35;1.65;;;22.90;30.70;;;;;;5097012;28;20044;-89
2023/05/08 06:03:16;;;;;;;1.17;0.88;;;22.80;30.40;;;;;;5107652;28;20024;-89
2023/05/08 06:05:46;;;;;;;5.57;1.55;;;23.40;30.00;;;;;;5089301;28;20040;-92
2023/05/08 06:08:12;;;;;;;6.80;1.63;;;23.80;29.70;;;;;;5085070;28;20079;-91
2023/05/08 06:10:38;;;;;;;7.20;3.20;;;24.80;29.50;;;;;;5086375;28;20021;-87
2023/05/08 06:13:05;;;;;;;2.70;1.45;;;25.30;28.50;;;;;;5112915;28;20060;-92
2023/05/08 06:15:37;;;;;;;5.57;1.85;;;24.60;28.50;;;;;;5090808;28;20024;-94
2023/05/08 06:18:05;;;;;;;2.17;1.50;;;24.10;28.80;;;;;;5107728;28;20088;-91
2023/05/08 06:20:31;;;;;;;3.08;1.50;;;23.70;29.50;;;;;;5099076;28;20036;-94
2023/05/08 06:22:57;;;;;;;2.83;1.13;;;24.40;29.00;;;;;;5100411;28;20024;-90
2023/05/08 06:25:27;;;;;;;1.88;1.40;;;24.60;28.30;;;;;;5105216;28;20031;-93
2023/05/08 06:27:54;;;;;;;4.53;1.45;;;24.80;28.20;;;;;;5082946;28;20524;-91
2023/05/08 06:30:20;;;;;;;1.90;1.13;;;24.70;28.00;;;;;;5083118;28;20032;-90
2023/05/08 06:32:45;;;;;;;2.35;1.40;;;24.20;28.30;;;;;;5082635;28;20543;-88
2023/05/08 06:35:12;;;;;;;3.55;1.45;;;24.20;28.20;;;;;;5090616;28;20035;-90
2023/05/08 06:37:37;;;;;;;5.43;2.22;;;23.00;28.80;;;;;;5090301;28;20068;-91
2023/05/08 06:40:05;;;;;;;2.97;1.67;;;22.20;29.70;;;;;;5100998;28;20095;-90
2023/05/08 06:42:30;;;;;;;;;;;23.40;29.70;;;;;;5075690;28;20501;-91
2023/05/08 06:44:56;;;;;;;5.20;1.93;;;24.80;29.80;;;;;;5044818;28;19970;-89
2023/05/08 06:47:24;;;;;;;3.45;1.65;;;25.10;28.50;;;;;;5032917;28;20033;-91
2023/05/08 06:49:52;;;;;;;5.10;1.88;;;25.40;27.90;;;;;;5072163;28;20025;-90
2023/05/08 06:52:19;;;;;;;3.85;1.50;;;25.70;27.70;;;;;;5036651;28;20037;-90
2023/05/08 06:54:45;;;;;;;2.70;1.30;;;24.20;27.80;;;;;;5052121;28;20041;-91
2023/05/08 06:57:13;;;;;;;2.58;1.75;;;23.60;28.50;;;;;;5063348;28;20018;-87
2023/05/08 06:59:39;;;;;;;3.17;1.85;;;24.50;28.60;;;;;;5028738;28;20109;-88
2023/05/08 07:02:06;;;;;;;3.25;1.63;;;23.90;27.80;;;;;;5042195;28;20034;-88
2023/05/08 07:04:32;;;;;;;1.97;1.33;;;22.10;28.50;;;;;;5044429;28;20084;-87
2023/05/08 07:06:57;;;;;;;2.80;1.30;;;20.10;29.90;;;;;;5030060;28;20271;-86
2023/05/08 07:09:23;;;;;;;1.60;1.25;;;19.60;31.40;;;;;;5032811;28;20076;-91
2023/05/08 07:11:50;;;;;;;3.28;1.02;;;19.30;31.10;;;;;;5022889;28;20067;-90
2023/05/08 07:14:18;;;;;;;5.97;1.38;;;18.00;31.90;;;;;;5016831;28;20080;-88
2023/05/08 07:16:44;;;;;;;5.82;2.13;;;16.80;33.30;;;;;;5068183;28;20029;-87
2023/05/08 07:19:10;;;;;;;3.63;1.30;;;15.70;34.60;;;;;;5039491;28;20029;-89
2023/05/08 07:21:38;;;;;;;2.30;1.33;;;14.90;35.80;;;;;;5073863;28;20016;-91
2023/05/08 07:24:08;;;;;;;5.00;1.40;;;14.40;36.30;;;;;;5076761;28;20047;-92
2023/05/08 07:26:36;;;;;;;2.97;1.50;;;14.00;37.00;;;;;;5054942;28;20040;-90
2023/05/08 07:29:02;;;;;;;2.22;1.33;;;13.70;37.50;;;;;;5077172;28;20034;-92
2023/05/08 07:31:47;;;;;;;2.67;1.38;;;13.50;37.90;;;;;;5089453;28;20035;-91
2023/05/08 07:34:13;;;;;;;4.43;1.48;;;13.80;38.30;;;;;;5124598;28;20031;-92
2023/05/08 07:36:40;;;;;;;5.45;1.63;;;14.80;37.60;;;;;;5069914;28;20506;-90
2023/05/08 07:39:15;;;;;;;7.90;1.83;;;14.90;36.30;;;;;;5028055;28;20096;-92
2023/05/08 07:41:42;;;;;;;2.20;1.60;;;14.30;36.80;;;;;;5049716;28;20025;-91
2023/05/08 07:44:11;;;;;;;3.95;1.50;;;13.60;37.50;;;;;;5054981;28;20021;-91
2023/05/08 07:46:37;;;;;;;5.20;1.45;;;13.10;39.10;;;;;;5020763;28;20084;-91
2023/05/08 07:49:03;;;;;;;3.20;1.13;;;13.50;39.40;;;;;;5044104;28;20021;-89
2023/05/08 07:51:29;;;;;;;4.15;1.38;;;14.50;37.80;;;;;;5045956;28;20052;-92
2023/05/08 07:53:55;;;;;;;6.20;1.13;;;14.60;36.90;;;;;;5037303;28;20037;-91
2023/05/08 07:56:21;;;;;;;4.22;1.40;;;16.20;37.40;;;;;;5048031;28;20017;-91
2023/05/08 07:58:56;;;;;;;2.73;1.30;;;;;;;;;;5042938;28;20103;-88
2023/05/08 08:01:34;;;;;;;1.90;1.20;;;18.80;34.30;;;;;;5051940;28;20026;-91
2023/05/08 08:04:18;;;;;;;4.03;1.13;;;24.20;29.50;;;;;;5038346;28;20042;-91
2023/05/08 08:06:46;;;;;;;1.55;1.17;;;26.60;28.20;;;;;;5042546;28;20037;-92
2023/05/08 08:09:12;;;;;;;5.85;1.52;;;27.10;26.80;;;;;;5073807;28;20028;-93
2023/05/08 08:11:44;;;;;;;4.07;1.45;;;24.90;27.20;;;;;;5097001;28;20017;-89
2023/05/08 08:14:13;;;;;;;2.90;1.10;;;22.30;28.20;;;;;;5098428;28;20058;-89
2023/05/08 08:16:45;;;;;;;2.22;1.17;;;20.10;29.80;;;;;;5089804;28;20456;-90
2023/05/08 08:19:14;;;;;;;5.22;1.50;;;18.20;30.90;;;;;;5107109;28;20103;-92
2023/05/08 08:21:43;;;;;;;2.95;1.40;;;17.40;32.40;;;;;;5097689;28;20032;-91
2023/05/08 08:24:09;;;;;;;2.10;1.30;;;17.30;32.30;;;;;;5102205;28;20036;-91
2023/05/08 08:26:36;;;;;;;5.07;1.90;;;16.90;32.90;;;;;;5097599;28;20089;-90
2023/05/08 08:29:09;;;;;;;3.63;1.83;;;15.90;33.60;;;;;;5116313;28;20012;-87
2023/05/08 08:31:35;;;;;;;4.22;1.60;;;15.00;35.00;;;;;;5090871;28;20038;-87
2023/05/08 08:34:01;;;;;;;3.25;1.30;;;14.40;36.20;;;;;;5106204;28;20035;-91
2023/05/08 08:36:27;;;;;;;1.95;1.30;;;14.00;37.00;;;;;;5105625;28;20015;-90
2023/05/08 08:38:53;;;;;;;1.83;1.30;;;13.50;37.60;;;;;;5119914;28;20024;-90
2023/05/08 08:41:20;;;;;;;1.92;1.08;;;13.10;38.40;;;;;;5097220;28;20050;-89
2023/05/08 08:43:46;;;;;;;4.60;1.30;;;12.80;39.00;;;;;;5092819;28;20048;-86
2023/05/08 08:46:14;;;;;;;1.65;1.30;;;12.60;39.20;;;;;;5097867;28;20024;-87
2023/05/08 08:48:45;;;;;;;3.13;1.73;;;12.80;39.20;;;;;;5094824;28;20021;-87
2023/05/08 08:51:22;;;;;;;3.58;1.40;;;14.00;38.30;;;;;;5077974;28;20044;-87
2023/05/08 08:54:15;;;;;;;2.10;1.20;;;14.70;36.80;;;;;;5102912;28;20028;-89
2023/05/08 08:56:44;;;;;;;2.90;1.10;;;14.80;36.30;;;;;;5102803;28;20393;-89
2023/05/08 08:59:12;;;;;;;4.60;1.85;;;14.60;36.90;;;;;;5099706;28;20032;-90
2023/05/08 09:01:43;;;;;;;2.13;1.33;;;14.30;37.00;;;;;;5105310;28;20561;-87
2023/05/08 09:04:09;;;;;;;5.38;1.75;;;14.10;36.90;;;;;;5105667;28;20020;-88
2023/05/08 09:06:37;;;;;;;9.10;1.40;;;13.90;37.30;;;;;;5087453;28;20024;-89
2023/05/08 09:09:03;;;;;;;6.18;1.95;;;13.50;37.50;;;;;;5106896;28;20016;-87
2023/05/08 09:11:30;;;;;;;4.50;1.52;;;13.30;37.80;;;;;;5104946;28;20028;-88
2023/05/08 09:13:57;;;;;;;6.30;1.48;;;13.20;38.00;;;;;;5093473;28;20042;-89
2023/05/08 09:16:23;;;;;;;3.92;1.27;;;13.00;38.10;;;;;;5112239;28;20469;-91
2023/05/08 09:18:49;;;;;;;2.92;1.63;;;12.90;38.00;;;;;;5092899;28;20028;-87
2023/05/08 09:21:15;;;;;;;2.17;1.15;;;12.90;38.10;;;;;;5100917;28;20064;-86
2023/05/08 09:24:02;;;;;;;2.08;1.13;;;13.00;38.30;;;;;;5092211;28;20020;-86
2023/05/08 09:26:48;;;;;;;1.70;1.17;;;13.10;37.80;;;;;;5101142;28;20028;-85
2023/05/08 09:29:16;;;;;;;4.68;1.27;;;13.20;37.90;;;;;;5098362;28;20024;-84
2023/05/08 09:31:45;;;;;;;3.60;1.65;;;13.50;37.70;;;;;;5087453;28;20071;-88
2023/05/08 09:34:26;;;;;;;3.33;1.80;;;13.90;37.70;;;;;;5095606;28;20438;-88
2023/05/08 09:36:53;;;;;;;1.42;1.20;;;15.20;36.80;;;;;;5084397;28;20463;-89
2023/05/08 09:39:25;;;;;;;4.35;1.55;;;16.10;34.90;;;;;;5078216;28;20067;-87
2023/05/08 09:42:03;;;;;;;1.40;1.13;;;15.80;34.50;;;;;;5114133;28;20108;-89
2023/05/08 09:44:50;;;;;;;3.35;1.45;;;15.10;34.90;;;;;;5081226;28;20028;-87
2023/05/08 09:47:23;;;;;;;5.07;1.00;;;14.20;35.80;;;;;;5089633;28;20031;-87
2023/05/08 09:50:01;;;;;;;1.88;1.48;;;13.50;36.60;;;;;;5115601;28;20033;-88
2023/05/08 09:52:29;;;;;;;7.43;2.47;;;12.90;37.40;;;;;;5116432;28;20036;-88
2023/05/08 09:55:08;;;;;;;3.25;1.50;;;12.60;38.30;;;;;;5099300;28;20099;-87
2023/05/08 09:57:38;;;;;;;4.07;1.40;;;12.40;38.20;;;;;;5114206;28;20027;-86
2023/05/08 10:00:09;;;;;;;12.90;3.33;;;12.20;38.60;;;;;;5098499;28;20070;-86
2023/05/08 10:02:36;;;;;;;4.13;1.85;;;12.10;39.20;;;;;;5079607;28;20032;-87
2023/05/08 10:05:04;;;;;;;4.53;1.88;;;12.10;39.60;;;;;;5082271;28;20031;-89
2023/05/08 10:07:37;;;;;;;7.22;2.10;;;12.00;39.70;;;;;;5077194;28;20354;-90
2023/05/08 10:10:05;;;;;;;4.63;2.05;;;12.10;40.00;;;;;;5087382;28;20092;-86
2023/05/08 10:12:32;;;;;;;2.35;1.48;;;12.10;40.10;;;;;;5077831;28;20047;-84
2023/05/08 10:14:58;;;;;;;5.30;1.38;;;12.00;40.00;;;;;;5068896;28;20027;-83
2023/05/08 10:17:35;;;;;;;3.10;1.40;;;11.90;40.10;;;;;;5084819;28;20746;-81
2023/05/08 10:20:05;;;;;;;3.27;1.70;;;11.90;40.30;;;;;;5104017;28;20440;-83
2023/05/08 10:22:35;;;;;;;2.03;1.30;;;12.00;40.30;;;;;;5100036;28;20715;-83
2023/05/08 10:25:02;;;;;;;3.90;1.60;;;12.20;39.90;;;;;;5103907;28;20042;-86
2023/05/08 10:27:44;;;;;;;5.07;1.77;;;12.30;39.90;;;;;;5084365;28;20021;-83
2023/05/08 10:30:13;;;;;;;2.55;1.70;;;12.40;39.50;;;;;;5084658;28;20033;-85
2023/05/08 10:32:43;;;;;;;3.65;1.58;;;12.50;39.30;;;;;;5095883;28;20032;-81
2023/05/08 10:35:11;;;;;;;4.93;2.05;;;12.60;39.20;;;;;;5084160;28;20024;-87
2023/05/08 10:37:37;;;;;;;;;;;12.80;39.20;;;;;;5097221;28;20020;-85
2023/05/08 10:40:05;;;;;;;7.00;1.53;;;13.10;38.50;;;;;;5090567;28;19911;-89
2023/05/08 10:42:32;;;;;;;;;;;13.30;38.50;;;;;;5090370;28;20413;-88
2023/05/08 10:45:00;;;;;;;3.33;1.77;;;13.40;37.40;;;;;;5094489;28;19919;-87
2023/05/08 10:47:38;;;;;;;3.53;1.38;;;13.40;37.00;;;;;;5089369;28;20033;-85
2023/05/08 10:50:35;;;;;;;2.22;1.42;;;13.50;37.30;;;;;;5094489;28;20028;-84
2023/05/08 10:53:07;;;;;;;2.53;1.85;;;13.90;36.90;;;;;;5075598;28;20113;-83
2023/05/08 10:55:36;;;;;;;2.45;1.90;;;14.40;36.20;;;;;;5075225;28;20025;-86
2023/05/08 10:58:03;;;;;;;3.75;2.30;;;14.60;36.00;;;;;;5082239;28;20477;-83
2023/05/08 11:00:47;;;;;;;;;;;14.70;35.70;;;;;;5094449;28;20051;-84
2023/05/08 11:03:16;;;;;;;2.30;1.45;;;14.70;36.30;;;;;;5109885;28;20322;-84
2023/05/08 11:05:46;;;;;;;2.45;1.40;;;14.70;36.30;;;;;;5106952;28;20106;-84
2023/05/08 11:08:23;;;;;;;3.33;1.50;;;14.80;35.80;;;;;;5100000;28;20481;-83
2023/05/08 11:11:05;;;;;;;3.20;1.92;;;15.00;35.60;;;;;;5097206;28;20032;-83
2023/05/08 11:13:39;;;;;;;3.72;1.55;;;15.10;35.20;;;;;;5107316;28;20031;-83
2023/05/08 11:16:06;;;;;;;6.65;1.85;;;15.20;35.00;;;;;;5097794;28;20055;-84
2023/05/08 11:18:32;;;;;;;4.18;1.50;;;15.10;35.60;;;;;;5107882;28;20031;-87
2023/05/08 11:21:04;;;;;;;3.95;1.33;;;14.80;35.70;;;;;;5114784;28;20024;-90
2023/05/08 11:23:37;;;;;;;4.60;1.95;;;14.30;36.00;;;;;;5120083;28;20069;-87
2023/05/08 11:26:16;;;;;;;4.70;1.75;;;13.90;36.20;;;;;;5106750;28;20083;-87
2023/05/08 11:28:57;;;;;;;4.90;2.22;;;13.70;36.50;;;;;;5101507;28;20529;-86
2023/05/08 11:31:43;;;;;;;4.25;1.77;;;13.60;36.80;;;;;;5114034;28;20555;-83
2023/05/08 11:34:48;;;;;;;2.58;1.63;;;13.60;36.50;;;;;;5101547;28;20039;-83
2023/05/08 11:37:19;;;;;;;8.88;2.47;;;13.60;36.90;;;;;;5104577;28;20020;-84
2023/05/08 11:39:45;;;;;;;4.95;1.60;;;13.70;37.00;;;;;;5082388;28;20587;-83
2023/05/08 11:42:24;;;;;;;5.32;1.80;;;13.80;37.00;;;;;;5082531;28;20032;-86
2023/05/08 11:45:12;;;;;;;4.85;2.50;;;14.10;36.40;;;;;;5086527;28;20024;-89
2023/05/08 11:47:43;;;;;;;4.40;1.83;;;14.20;36.20;;;;;;5083427;28;20020;-91
2023/05/08 11:50:11;;;;;;;4.65;1.85;;;14.10;36.60;;;;;;5115334;28;20107;-90
2023/05/08 11:52:39;;;;;;;2.58;1.83;;;14.20;36.30;;;;;;5100246;28;20032;-88
2023/05/08 11:55:09;;;;;;;3.10;1.67;;;14.10;36.80;;;;;;5104591;28;20036;-88
2023/05/08 11:57:35;;;;;;;4.38;1.92;;;14.00;36.80;;;;;;5098512;28;20032;-90
2023/05/08 12:00:25;;;;;;;6.72;2.05;;;13.80;37.10;;;;;;5108351;27;20050;-91
2023/05/08 12:02:52;;;;;;;2.78;2.00;;;13.70;36.80;;;;;;5076743;28;20033;-90
2023/05/08 12:05:26;;;;;;;4.45;1.70;;;13.70;37.00;;;;;;5053326;28;20036;-86
2023/05/08 12:07:52;;;;;;;5.60;1.92;;;13.60;37.60;;;;;;5061159;28;20099;-85
2023/05/08 12:10:18;;;;;;;6.35;1.88;;;13.40;37.50;;;;;;5062231;28;20028;-87
2023/05/08 12:12:45;;;;;;;4.10;1.92;;;13.40;37.70;;;;;;5066085;28;20033;-83
2023/05/08 12:15:13;;;;;;;5.68;2.30;;;13.40;37.80;;;;;;5057139;28;20124;-86
2023/05/08 12:17:39;;;;;;;5.47;2.22;;;13.50;37.50;;;;;;5067964;28;20032;-86
2023/05/08 12:20:16;;;;;;;6.32;2.13;;;13.50;37.50;;;;;;5048395;28;20565;-84
2023/05/08 12:22:48;;;;;;;2.97;2.30;;;13.50;37.30;;;;;;5066401;28;20102;-84
2023/05/08 12:25:16;;;;;;;4.78;2.08;;;13.50;37.30;;;;;;5056617;28;20037;-85
2023/05/08 12:27:42;;;;;;;;;;;13.40;37.60;;;;;;5055803;28;20041;-84
2023/05/08 12:30:12;;;;;;;4.38;2.45;;;13.40;38.30;;;;;;5054250;28;19983;-83
2023/05/08 12:32:40;;;;;;;4.18;2.20;;;13.40;38.20;;;;;;5054607;28;20037;-82
2023/05/08 12:35:08;;;;;;;3.28;1.90;;;13.60;37.90;;;;;;5077265;28;20496;-85
2023/05/08 12:37:34;;;;;;;3.10;1.98;;;13.70;37.80;;;;;;5074246;28;20035;-85
2023/05/08 12:40:01;;;;;;;4.43;2.85;;;13.60;37.50;;;;;;5094324;28;20028;-85
2023/05/08 12:42:44;;;;;;;5.40;2.28;;;13.60;37.50;;;;;;5083990;28;20059;-84
2023/05/08 12:45:17;;;;;;;6.32;2.70;;;13.50;37.80;;;;;;5097551;28;20121;-83
2023/05/08 12:47:51;;;;;;;4.82;2.08;;;13.40;37.80;;;;;;5105138;28;20377;-84
2023/05/08 12:50:21;;;;;;;3.25;2.10;;;13.30;38.00;;;;;;5097805;28;20027;-85
2023/05/08 12:52:48;;;;;;;5.72;2.10;;;13.30;38.00;;;;;;5114052;28;20034;-83
2023/05/08 12:55:50;;;;;;;3.60;2.10;;;13.20;37.70;;;;;;5111028;28;20057;-82
2023/05/08 12:58:16;;;;;;;4.00;2.70;;;13.20;38.00;;;;;;5090781;28;20359;-85
2023/05/08 13:00:44;;;;;;;4.82;2.40;;;13.10;38.40;;;;;;5106461;28;20064;-87
2023/05/08 13:03:12;;;;;;;7.93;2.03;;;13.10;38.30;;;;;;5103302;28;20032;-85
2023/05/08 13:05:42;;;;;;;;;;;13.10;38.00;;;;;;5107665;28;20012;-86